Time;durP1;ratioP1;P1;durP2;ratioP2;P2;SDS_P1;SDS_P2;PMS_P1;PMS_P2;Temp;Humidity;BMP_temperature;BMP_pressure;BME280_temperature;BME280_humidity;BME280_pressure;Samples;Min_cycle;Max_cycle;Signal;HPM_P1;HPM_P2
2021/09/22 00:01:26;;;;;;;6.00;3.17;;;12.90;97.30;;;;;;5069520;28;20225;-78
2021/09/22 00:03:51;;;;;;;5.13;3.63;;;13.00;97.30;;;;;;5069534;28;20211;-78
2021/09/22 00:06:17;;;;;;;8.60;3.63;;;13.00;97.30;;;;;;5069620;28;20183;-79
2021/09/22 00:08:42;;;;;;;6.23;3.70;;;13.00;97.30;;;;;;5069362;28;20209;-78
2021/09/22 00:11:08;;;;;;;9.40;3.90;;;13.00;97.30;;;;;;5069635;28;20210;-78
2021/09/22 00:13:34;;;;;;;6.17;3.93;;;13.10;97.30;;;;;;5069751;28;20195;-79
2021/09/22 00:15:59;;;;;;;6.77;4.23;;;13.10;97.30;;;;;;5069515;28;20179;-78
2021/09/22 00:18:25;;;;;;;5.10;3.40;;;13.10;97.30;;;;;;5069115;28;20233;-79
2021/09/22 00:20:50;;;;;;;8.17;4.30;;;13.10;97.30;;;;;;5069073;28;20182;-78
2021/09/22 00:23:16;;;;;;;7.97;3.93;;;13.20;97.30;;;;;;5069501;28;20669;-79
2021/09/22 00:25:42;;;;;;;6.20;3.83;;;13.20;97.30;;;;;;5069488;28;20587;-78
2021/09/22 00:28:07;;;;;;;6.93;3.67;;;13.20;97.30;;;;;;5070097;28;20175;-78
2021/09/22 00:30:34;;;;;;;10.70;4.47;;;13.20;97.30;;;;;;5069521;28;20207;-78
2021/09/22 00:33:00;;;;;;;8.40;3.93;;;13.20;97.30;;;;;;5070552;28;20626;-79
2021/09/22 00:35:26;;;;;;;11.30;4.37;;;13.30;97.30;;;;;;5070388;28;20417;-78
2021/09/22 00:37:52;;;;;;;6.60;5.27;;;13.30;97.30;;;;;;5069136;28;20408;-78
2021/09/22 00:40:17;;;;;;;8.83;4.27;;;13.30;97.30;;;;;;5069008;28;20267;-78
2021/09/22 00:42:43;;;;;;;10.77;4.27;;;13.30;97.30;;;;;;5068905;28;20789;-78
2021/09/22 00:45:12;;;;;;;9.20;4.20;;;13.30;97.30;;;;;;5070440;28;20758;-78
2021/09/22 00:47:39;;;;;;;5.93;4.40;;;13.30;97.30;;;;;;5070422;28;20172;-78
2021/09/22 00:50:05;;;;;;;8.83;4.87;;;13.30;97.30;;;;;;5069257;28;20468;-79
2021/09/22 00:52:31;;;;;;;8.03;4.57;;;13.30;97.30;;;;;;5070660;28;20456;-78
2021/09/22 00:54:57;;;;;;;6.87;4.17;;;13.30;97.30;;;;;;5068735;28;20915;-78
2021/09/22 00:57:22;;;;;;;5.50;3.63;;;13.30;97.30;;;;;;5069337;28;20183;-78
2021/09/22 00:59:48;;;;;;;10.83;4.67;;;13.30;97.30;;;;;;5071621;28;20174;-78
2021/09/22 01:02:14;;;;;;;8.00;4.27;;;13.30;97.30;;;;;;5072449;28;20219;-78
2021/09/22 01:04:42;;;;;;;13.20;5.40;;;13.30;97.30;;;;;;5073604;28;20212;-78
2021/09/22 01:07:10;;;;;;;10.80;4.73;;;13.30;97.30;;;;;;5073445;28;20883;-78
2021/09/22 01:09:37;;;;;;;13.97;4.77;;;13.40;97.30;;;;;;5072560;28;20548;-78
2021/09/22 01:12:03;;;;;;;10.07;5.10;;;13.40;97.30;;;;;;5073747;28;20406;-78
2021/09/22 01:14:29;;;;;;;11.13;4.80;;;13.40;97.30;;;;;;5072063;28;20852;-77
2021/09/22 01:16:55;;;;;;;8.50;5.27;;;13.40;97.30;;;;;;5073194;28;20413;-79
2021/09/22 01:19:21;;;;;;;13.57;5.60;;;13.40;97.30;;;;;;5073721;28;20182;-79
2021/09/22 01:21:51;;;;;;;8.03;4.70;;;13.40;97.30;;;;;;5072136;28;20183;-79
2021/09/22 01:24:17;;;;;;;8.17;5.00;;;13.40;97.30;;;;;;5073639;28;20502;-79
2021/09/22 01:26:44;;;;;;;10.57;5.17;;;13.40;97.30;;;;;;5072442;28;20418;-78
2021/09/22 01:29:10;;;;;;;10.17;5.00;;;13.40;97.30;;;;;;5071679;28;20479;-78
2021/09/22 01:31:37;;;;;;;14.37;5.20;;;13.40;97.30;;;;;;5073276;28;20413;-79
2021/09/22 01:34:05;;;;;;;11.10;5.43;;;13.40;97.30;;;;;;5071892;28;20227;-79
2021/09/22 01:36:31;;;;;;;14.90;6.03;;;13.40;97.30;;;;;;5071919;28;20413;-79
2021/09/22 01:38:57;;;;;;;10.77;5.20;;;13.40;97.30;;;;;;5073908;28;20513;-79
2021/09/22 01:41:23;;;;;;;18.77;5.67;;;13.40;97.30;;;;;;5072101;28;20522;-79
2021/09/22 01:43:49;;;;;;;10.67;5.37;;;13.30;97.30;;;;;;5072079;28;20246;-78
2021/09/22 01:46:14;;;;;;;13.93;4.93;;;13.30;97.30;;;;;;5071946;28;20553;-79
2021/09/22 01:48:40;;;;;;;14.70;5.10;;;13.30;97.30;;;;;;5073339;28;20559;-79
2021/09/22 01:51:08;;;;;;;12.60;5.30;;;13.20;97.30;;;;;;5072805;28;20247;-78
2021/09/22 01:53:34;;;;;;;12.83;5.07;;;13.20;97.30;;;;;;5071167;28;20195;-78
2021/09/22 01:56:01;;;;;;;11.40;6.00;;;13.20;97.30;;;;;;5072723;28;20506;-79
2021/09/22 01:58:28;;;;;;;14.13;5.10;;;13.20;97.30;;;;;;5062012;28;20411;-79
2021/09/22 02:00:56;;;;;;;13.20;5.13;;;13.20;97.30;;;;;;5051350;28;20931;-79
2021/09/22 02:03:21;;;;;;;13.33;5.77;;;13.10;97.30;;;;;;5051326;28;20457;-79
2021/09/22 02:05:47;;;;;;;12.00;5.33;;;13.10;97.30;;;;;;5051675;28;20430;-78
2021/09/22 02:08:13;;;;;;;10.17;5.53;;;13.10;97.30;;;;;;5052896;28;20259;-78
2021/09/22 02:10:39;;;;;;;18.20;5.30;;;13.10;97.30;;;;;;5052516;28;20214;-79
2021/09/22 02:13:05;;;;;;;12.53;4.40;;;13.00;97.30;;;;;;5052314;28;20279;-78
2021/09/22 02:15:31;;;;;;;18.00;5.80;;;13.00;97.30;;;;;;5051504;28;20419;-78
2021/09/22 02:17:56;;;;;;;17.10;6.10;;;13.00;97.30;;;;;;5052731;28;20501;-78
2021/09/22 02:20:22;;;;;;;11.43;4.90;;;13.00;97.30;;;;;;5052296;28;20180;-79
2021/09/22 02:22:48;;;;;;;15.37;5.47;;;12.90;97.30;;;;;;5051061;28;20226;-79
2021/09/22 02:25:14;;;;;;;10.60;5.23;;;12.90;97.30;;;;;;5051445;28;20941;-79
2021/09/22 02:27:40;;;;;;;14.37;5.60;;;12.90;97.30;;;;;;5050704;28;20205;-79
2021/09/22 02:30:08;;;;;;;10.60;6.03;;;12.90;97.30;;;;;;5052068;28;20485;-78
2021/09/22 02:32:34;;;;;;;15.63;5.67;;;12.80;97.30;;;;;;5051984;28;20441;-79
2021/09/22 02:34:59;;;;;;;15.17;6.40;;;12.80;97.30;;;;;;5051300;28;20419;-79
2021/09/22 02:37:25;;;;;;;16.03;5.00;;;12.80;97.30;;;;;;5052711;28;20761;-79
2021/09/22 02:39:52;;;;;;;14.33;5.50;;;12.70;97.30;;;;;;5050644;28;20188;-79
2021/09/22 02:42:18;;;;;;;14.40;5.03;;;12.70;97.30;;;;;;5050160;28;20180;-79
2021/09/22 02:44:43;;;;;;;11.60;5.67;;;12.70;97.30;;;;;;5050472;28;20474;-79
2021/09/22 02:47:09;;;;;;;10.47;5.60;;;12.70;97.30;;;;;;5050266;28;20223;-79
2021/09/22 02:49:35;;;;;;;12.73;5.60;;;12.70;97.30;;;;;;5066197;28;20203;-78
2021/09/22 02:52:00;;;;;;;18.30;5.57;;;12.60;97.30;;;;;;5071767;28;20633;-79
2021/09/22 02:54:26;;;;;;;11.60;5.20;;;12.60;97.30;;;;;;5070700;28;20226;-78
2021/09/22 02:56:52;;;;;;;21.43;5.80;;;12.60;97.30;;;;;;5071251;28;20175;-79
2021/09/22 02:59:17;;;;;;;13.47;5.80;;;12.60;97.30;;;;;;5070106;28;20210;-79
2021/09/22 03:01:43;;;;;;;13.47;6.20;;;12.60;97.30;;;;;;5070128;28;20512;-79
2021/09/22 03:04:09;;;;;;;14.73;5.40;;;12.60;97.30;;;;;;5053368;28;20310;-79
2021/09/22 03:06:34;;;;;;;12.60;5.87;;;12.50;97.30;;;;;;5071834;28;20202;-78
2021/09/22 03:09:00;;;;;;;14.23;5.90;;;12.50;97.30;;;;;;5070463;28;20210;-79
2021/09/22 03:11:25;;;;;;;9.00;5.17;;;12.50;97.30;;;;;;5069676;28;20175;-79
2021/09/22 03:13:51;;;;;;;16.40;5.30;;;12.50;97.30;;;;;;5069746;28;20199;-79
2021/09/22 03:16:17;;;;;;;19.63;6.13;;;12.50;97.30;;;;;;5071239;28;20190;-79
2021/09/22 03:18:43;;;;;;;12.97;5.60;;;12.50;97.30;;;;;;5071202;28;20199;-79
2021/09/22 03:21:08;;;;;;;11.87;5.90;;;12.60;97.30;;;;;;5070412;28;20448;-79
2021/09/22 03:23:34;;;;;;;13.03;5.90;;;12.60;97.30;;;;;;5070195;28;20202;-79
2021/09/22 03:26:00;;;;;;;13.43;5.40;;;12.60;97.30;;;;;;5069788;28;20235;-79
2021/09/22 03:28:26;;;;;;;19.50;5.47;;;12.60;97.30;;;;;;5071515;28;20175;-79
2021/09/22 03:30:52;;;;;;;13.53;6.70;;;12.50;97.30;;;;;;5071360;28;20583;-78
2021/09/22 03:33:17;;;;;;;18.10;5.80;;;12.60;97.30;;;;;;5069931;28;20430;-79
2021/09/22 03:35:44;;;;;;;16.10;6.43;;;12.60;97.30;;;;;;5051942;28;20176;-78
2021/09/22 03:38:09;;;;;;;10.47;5.80;;;12.60;97.30;;;;;;5049922;28;20652;-78
2021/09/22 03:40:36;;;;;;;13.77;5.43;;;12.60;97.30;;;;;;5051077;28;20418;-79
2021/09/22 03:43:02;;;;;;;17.77;5.83;;;12.60;97.30;;;;;;5057400;28;20199;-79
2021/09/22 03:45:28;;;;;;;24.80;7.47;;;12.60;97.30;;;;;;5073406;28;20500;-78
2021/09/22 03:47:54;;;;;;;16.40;5.70;;;12.60;97.30;;;;;;5087716;28;20510;-79
2021/09/22 03:50:20;;;;;;;12.53;5.50;;;12.60;97.30;;;;;;5069513;28;20531;-79
2021/09/22 03:52:45;;;;;;;19.53;7.30;;;12.60;97.30;;;;;;5070675;28;20429;-78
2021/09/22 03:55:12;;;;;;;22.60;6.23;;;12.60;97.30;;;;;;5069833;28;20167;-79
2021/09/22 03:57:37;;;;;;;18.97;5.67;;;12.60;97.30;;;;;;5083517;28;20190;-79
2021/09/22 04:00:04;;;;;;;17.90;5.87;;;12.60;97.30;;;;;;5089161;28;21044;-78
2021/09/22 04:02:30;;;;;;;15.03;6.40;;;12.60;97.30;;;;;;5073499;28;20278;-78
2021/09/22 04:04:55;;;;;;;20.57;5.40;;;12.60;97.30;;;;;;5089283;28;20452;-79
2021/09/22 04:07:21;;;;;;;12.33;5.33;;;12.60;97.30;;;;;;5075700;28;20615;-79
2021/09/22 04:09:46;;;;;;;17.10;6.20;;;12.60;97.30;;;;;;5069942;28;20203;-78
2021/09/22 04:12:12;;;;;;;15.07;4.83;;;12.60;97.30;;;;;;5071100;28;20621;-80
2021/09/22 04:14:38;;;;;;;13.47;5.20;;;12.60;97.30;;;;;;5069626;28;20681;-78
2021/09/22 04:17:03;;;;;;;21.10;6.10;;;12.60;97.30;;;;;;5069955;28;20244;-78
2021/09/22 04:19:29;;;;;;;13.87;5.40;;;12.60;97.30;;;;;;5068910;28;20273;-79
2021/09/22 04:21:55;;;;;;;15.83;5.90;;;12.60;97.30;;;;;;5069221;28;20179;-79
2021/09/22 04:24:20;;;;;;;20.80;7.00;;;12.70;97.30;;;;;;5069745;28;20230;-79
2021/09/22 04:26:46;;;;;;;20.30;6.37;;;12.70;97.30;;;;;;5070974;28;20190;-78
2021/09/22 04:29:11;;;;;;;19.20;5.93;;;12.70;97.30;;;;;;5069233;28;20209;-79
2021/09/22 04:31:37;;;;;;;17.57;6.17;;;12.70;97.30;;;;;;5068912;28;20544;-79
2021/09/22 04:34:03;;;;;;;23.53;5.87;;;12.70;97.30;;;;;;5071046;28;20195;-79
2021/09/22 04:36:29;;;;;;;14.87;6.13;;;12.70;97.30;;;;;;5073640;28;20420;-79
2021/09/22 04:38:55;;;;;;;16.60;5.40;;;12.70;97.30;;;;;;5074693;28;20825;-78
2021/09/22 04:41:20;;;;;;;15.70;5.23;;;12.70;97.30;;;;;;5073600;28;20633;-78
2021/09/22 04:43:46;;;;;;;12.67;4.70;;;12.70;97.30;;;;;;5073444;28;20692;-79
2021/09/22 04:46:13;;;;;;;18.50;6.27;;;12.60;97.30;;;;;;5073652;28;20241;-79
2021/09/22 04:48:39;;;;;;;19.20;6.03;;;12.60;97.30;;;;;;5074485;28;20175;-78
2021/09/22 04:51:05;;;;;;;20.07;7.30;;;12.60;97.30;;;;;;5073472;28;20435;-79
2021/09/22 04:53:31;;;;;;;21.03;7.17;;;12.60;97.30;;;;;;5074988;28;20240;-78
2021/09/22 04:55:56;;;;;;;23.60;6.90;;;12.60;97.30;;;;;;5073954;28;20449;-79
2021/09/22 04:58:22;;;;;;;19.13;6.43;;;12.60;97.30;;;;;;5074845;28;20203;-78
2021/09/22 05:00:48;;;;;;;26.97;8.40;;;12.60;97.30;;;;;;5074553;28;20175;-79
2021/09/22 05:03:15;;;;;;;16.13;5.90;;;12.60;97.30;;;;;;5072726;28;20209;-78
2021/09/22 05:05:41;;;;;;;28.70;6.40;;;12.60;97.30;;;;;;5074656;28;20183;-79
2021/09/22 05:08:07;;;;;;;18.37;5.83;;;12.60;97.30;;;;;;5074402;28;20424;-78
2021/09/22 05:10:32;;;;;;;21.63;7.07;;;12.60;97.30;;;;;;5073258;28;20207;-79
2021/09/22 05:12:58;;;;;;;25.83;6.17;;;12.60;97.30;;;;;;5074578;28;20429;-78
2021/09/22 05:15:23;;;;;;;12.87;5.93;;;12.60;97.30;;;;;;5073946;28;20182;-77
2021/09/22 05:17:49;;;;;;;23.57;6.07;;;12.60;97.30;;;;;;5074152;28;20167;-79
2021/09/22 05:20:15;;;;;;;21.30;5.97;;;12.60;97.30;;;;;;5073529;28;20191;-78
2021/09/22 05:22:40;;;;;;;22.37;7.03;;;12.60;97.30;;;;;;5071847;28;20256;-79
2021/09/22 05:25:06;;;;;;;21.90;6.90;;;12.60;97.30;;;;;;5073187;28;20179;-79
2021/09/22 05:27:32;;;;;;;24.03;6.27;;;12.60;97.30;;;;;;5073723;28;20209;-78
2021/09/22 05:29:58;;;;;;;15.70;5.60;;;12.60;97.30;;;;;;5072214;28;20978;-78
2021/09/22 05:32:23;;;;;;;17.10;5.63;;;12.60;97.30;;;;;;5072159;28;20179;-79
2021/09/22 05:34:49;;;;;;;21.87;5.80;;;12.60;97.30;;;;;;5072024;28;20630;-79
2021/09/22 05:37:15;;;;;;;18.33;6.23;;;12.60;97.30;;;;;;5073098;28;20742;-79
2021/09/22 05:39:40;;;;;;;22.33;7.20;;;12.60;97.30;;;;;;5073437;28;20175;-79
2021/09/22 05:42:07;;;;;;;15.77;6.20;;;12.60;97.30;;;;;;5072607;28;20915;-79
2021/09/22 05:44:32;;;;;;;20.13;6.47;;;12.70;97.30;;;;;;5070944;28;20230;-79
2021/09/22 05:46:58;;;;;;;16.77;7.00;;;12.70;97.30;;;;;;5073180;28;20422;-78
2021/09/22 05:49:24;;;;;;;19.27;7.00;;;12.70;97.30;;;;;;5058259;28;20238;-79
2021/09/22 05:51:49;;;;;;;22.60;7.53;;;12.70;97.30;;;;;;5057580;28;20179;-78
2021/09/22 05:54:16;;;;;;;16.73;6.60;;;12.70;97.30;;;;;;5073056;28;20199;-78
2021/09/22 05:56:42;;;;;;;20.00;6.90;;;12.70;97.30;;;;;;5071571;28;20171;-78
2021/09/22 05:59:08;;;;;;;20.73;6.70;;;12.70;97.30;;;;;;5071457;28;20421;-79
2021/09/22 06:01:34;;;;;;;19.73;7.10;;;12.70;97.30;;;;;;5071786;28;20866;-78
2021/09/22 06:03:59;;;;;;;14.20;6.97;;;12.70;97.30;;;;;;5072574;28;20277;-78
2021/09/22 06:06:25;;;;;;;17.10;7.60;;;12.70;97.30;;;;;;5071626;28;20288;-78
2021/09/22 06:08:51;;;;;;;14.90;6.30;;;12.70;97.30;;;;;;5067654;28;20646;-78
2021/09/22 06:11:16;;;;;;;20.53;6.93;;;12.70;97.30;;;;;;5071504;28;20214;-79
2021/09/22 06:13:42;;;;;;;17.53;7.50;;;12.70;97.30;;;;;;5070932;28;20667;-79
2021/09/22 06:16:07;;;;;;;22.20;7.90;;;12.70;97.30;;;;;;5071358;28;20537;-79
2021/09/22 06:18:35;;;;;;;20.13;7.53;;;12.70;97.30;;;;;;5071662;28;20296;-77
2021/09/22 06:21:01;;;;;;;28.40;7.47;;;12.70;97.30;;;;;;5071369;28;20693;-79
2021/09/22 06:23:27;;;;;;;22.57;6.83;;;12.70;97.30;;;;;;5070826;28;20611;-78
2021/09/22 06:25:53;;;;;;;22.53;7.50;;;12.80;97.30;;;;;;5070958;28;20794;-79
2021/09/22 06:28:18;;;;;;;23.43;6.10;;;12.80;97.30;;;;;;5071132;28;20202;-79
2021/09/22 06:30:44;;;;;;;22.63;6.70;;;12.80;97.30;;;;;;5071147;28;20202;-79
2021/09/22 06:33:10;;;;;;;18.50;6.77;;;12.80;97.30;;;;;;5071906;28;20640;-78
2021/09/22 06:35:36;;;;;;;22.03;7.60;;;12.80;97.30;;;;;;5071113;28;20555;-79
2021/09/22 06:38:01;;;;;;;17.53;7.23;;;12.80;97.30;;;;;;5070618;28;20531;-79
2021/09/22 06:40:27;;;;;;;16.00;6.23;;;12.80;97.30;;;;;;5070893;28;20241;-79
2021/09/22 06:42:52;;;;;;;22.27;6.40;;;12.80;97.30;;;;;;5070553;28;20199;-78
2021/09/22 06:45:20;;;;;;;22.17;6.30;;;12.80;97.30;;;;;;5070420;28;20235;-79
2021/09/22 06:47:46;;;;;;;19.20;6.90;;;12.80;97.30;;;;;;5070626;28;20194;-78
2021/09/22 06:50:12;;;;;;;20.57;6.40;;;12.80;97.30;;;;;;5070375;28;20465;-79
2021/09/22 06:52:39;;;;;;;15.40;5.90;;;12.80;97.30;;;;;;5071231;28;20457;-79
2021/09/22 06:55:05;;;;;;;19.60;6.13;;;12.90;97.30;;;;;;5070757;28;20427;-79
2021/09/22 06:57:32;;;;;;;30.50;7.13;;;12.90;97.30;;;;;;5070571;28;20163;-78
2021/09/22 06:59:57;;;;;;;21.80;6.33;;;12.90;97.30;;;;;;5071521;28;20413;-78
2021/09/22 07:02:23;;;;;;;24.53;6.50;;;12.90;97.30;;;;;;5070088;28;20424;-78
2021/09/22 07:04:48;;;;;;;18.43;6.50;;;13.00;97.30;;;;;;5070255;28;20559;-78
2021/09/22 07:07:14;;;;;;;19.63;6.37;;;13.00;97.30;;;;;;5069815;28;20179;-78
2021/09/22 07:09:40;;;;;;;23.00;6.30;;;13.00;97.30;;;;;;5069661;28;20211;-79
2021/09/22 07:12:06;;;;;;;19.80;6.73;;;13.10;97.30;;;;;;5070341;28;20565;-78
2021/09/22 07:14:31;;;;;;;24.63;6.10;;;13.10;97.30;;;;;;5069935;28;20194;-78
2021/09/22 07:16:57;;;;;;;27.10;7.00;;;13.10;97.30;;;;;;5069946;28;20409;-79
2021/09/22 07:19:22;;;;;;;20.37;6.40;;;13.10;97.30;;;;;;5069784;28;20187;-78
2021/09/22 07:21:48;;;;;;;19.10;6.73;;;13.20;97.30;;;;;;5069771;28;20183;-79
2021/09/22 07:24:14;;;;;;;31.70;5.90;;;13.20;97.30;;;;;;5071004;28;20206;-79
2021/09/22 07:26:39;;;;;;;24.97;7.83;;;13.30;97.30;;;;;;5070028;28;20175;-79
2021/09/22 07:29:07;;;;;;;24.10;6.80;;;13.30;97.30;;;;;;5071201;28;20198;-79
2021/09/22 07:31:34;;;;;;;15.77;6.60;;;13.40;97.30;;;;;;5070884;28;20175;-78
2021/09/22 07:34:00;;;;;;;26.37;7.50;;;13.40;97.30;;;;;;5069913;28;20437;-79
2021/09/22 07:36:26;;;;;;;17.37;7.50;;;13.40;97.30;;;;;;5070090;28;20911;-79
2021/09/22 07:38:51;;;;;;;32.93;6.90;;;13.50;97.30;;;;;;5070977;28;20218;-79
2021/09/22 07:41:17;;;;;;;29.70;6.20;;;13.50;97.30;;;;;;5069302;28;20171;-78
2021/09/22 07:43:43;;;;;;;17.80;7.00;;;13.50;97.30;;;;;;5070610;28;20715;-78
2021/09/22 07:46:08;;;;;;;21.43;6.60;;;13.50;97.30;;;;;;5069431;28;20167;-78
2021/09/22 07:48:35;;;;;;;26.20;6.60;;;13.50;97.30;;;;;;5069878;28;20636;-78
2021/09/22 07:51:02;;;;;;;15.03;6.23;;;13.60;97.30;;;;;;5070583;28;20219;-79
2021/09/22 07:53:27;;;;;;;22.63;6.87;;;13.60;97.30;;;;;;5070293;28;20980;-78
2021/09/22 07:55:53;;;;;;;17.43;5.33;;;13.60;97.30;;;;;;5069534;28;20421;-79
2021/09/22 07:58:18;;;;;;;31.13;5.87;;;13.70;97.30;;;;;;5069402;28;20202;-79
2021/09/22 08:00:45;;;;;;;14.53;5.43;;;13.70;97.30;;;;;;5068844;28;20175;-79
2021/09/22 08:03:10;;;;;;;36.33;6.47;;;13.80;97.30;;;;;;5070838;28;20206;-79
2021/09/22 08:05:39;;;;;;;28.80;6.50;;;13.80;97.30;;;;;;5069520;28;20413;-79
2021/09/22 08:08:08;;;;;;;21.70;5.30;;;13.90;97.30;;;;;;5070316;28;20187;-79
2021/09/22 08:10:35;;;;;;;29.20;6.60;;;13.90;97.30;;;;;;5054519;28;20940;-79
2021/09/22 08:13:02;;;;;;;25.70;5.20;;;14.00;97.30;;;;;;5053254;28;20445;-79
2021/09/22 08:15:27;;;;;;;16.97;5.20;;;14.00;97.30;;;;;;5053051;28;20414;-79
2021/09/22 08:17:53;;;;;;;20.30;5.07;;;14.10;97.30;;;;;;5053333;28;20425;-79
2021/09/22 08:20:18;;;;;;;17.77;5.20;;;14.10;97.30;;;;;;5053019;28;20596;-78
2021/09/22 08:22:45;;;;;;;21.50;5.07;;;14.10;97.30;;;;;;5054098;28;20280;-79
2021/09/22 08:25:11;;;;;;;24.17;5.13;;;14.20;97.30;;;;;;5054874;28;20179;-78
2021/09/22 08:27:37;;;;;;;29.30;5.80;;;14.20;97.30;;;;;;5053203;28;20502;-79
2021/09/22 08:30:05;;;;;;;21.23;5.90;;;14.20;97.30;;;;;;5053293;28;20556;-79
2021/09/22 08:32:31;;;;;;;32.60;7.03;;;14.30;97.30;;;;;;5053098;28;20176;-78
2021/09/22 08:34:57;;;;;;;16.50;5.17;;;14.30;97.30;;;;;;5052706;28;20930;-78
2021/09/22 08:37:22;;;;;;;18.83;4.57;;;14.30;97.30;;;;;;5053069;28;20179;-79
2021/09/22 08:39:48;;;;;;;33.33;7.93;;;14.40;97.30;;;;;;5052811;28;20519;-79
2021/09/22 08:42:14;;;;;;;30.80;5.23;;;14.40;97.30;;;;;;5052784;28;20176;-79
2021/09/22 08:44:41;;;;;;;19.47;5.10;;;14.50;97.30;;;;;;5052634;28;20231;-79
2021/09/22 08:47:07;;;;;;;15.40;5.00;;;14.60;97.30;;;;;;5053808;28;20262;-78
2021/09/22 08:49:32;;;;;;;17.67;4.80;;;14.70;97.30;;;;;;5068618;28;20624;-79
2021/09/22 08:51:58;;;;;;;11.23;3.73;;;14.80;97.30;;;;;;5072720;28;20179;-79
2021/09/22 08:54:23;;;;;;;25.30;7.10;;;14.90;97.30;;;;;;5072899;28;20358;-78
2021/09/22 08:56:49;;;;;;;13.60;4.10;;;14.90;97.30;;;;;;5072422;28;20188;-77
2021/09/22 08:59:16;;;;;;;17.43;3.50;;;15.00;97.30;;;;;;5072258;28;20217;-79
2021/09/22 09:02:03;;;;;;;21.03;3.90;;;15.00;97.30;;;;;;5072286;28;20182;-79
2021/09/22 09:04:28;;;;;;;15.07;3.37;;;15.00;97.30;;;;;;5073706;28;20441;-79
2021/09/22 09:06:54;;;;;;;17.60;4.60;;;15.10;97.30;;;;;;5072373;28;20440;-79
2021/09/22 09:09:21;;;;;;;27.87;6.50;;;15.10;97.30;;;;;;5072926;28;20229;-79
2021/09/22 09:11:46;;;;;;;21.43;5.47;;;15.20;97.30;;;;;;5074132;28;20409;-79
2021/09/22 09:14:15;;;;;;;17.80;4.23;;;15.30;97.30;;;;;;5074072;28;20433;-79
2021/09/22 09:16:48;;;;;;;17.77;4.00;;;15.30;97.30;;;;;;5073428;28;20170;-79
2021/09/22 09:19:19;;;;;;;14.83;5.13;;;15.40;97.30;;;;;;5072206;28;20855;-79
2021/09/22 09:22:03;;;;;;;12.37;4.13;;;15.50;97.30;;;;;;5072298;28;20942;-78
2021/09/22 09:24:49;;;;;;;18.87;3.90;;;15.70;97.30;;;;;;5072338;28;20441;-78
2021/09/22 09:27:23;;;;;;;17.10;3.63;;;15.80;97.30;;;;;;5072510;28;20471;-79
2021/09/22 09:29:55;;;;;;;20.07;3.23;;;15.90;97.30;;;;;;5072434;28;20981;-79
2021/09/22 09:32:29;;;;;;;22.20;3.70;;;15.90;97.30;;;;;;5073471;28;20417;-79
2021/09/22 09:35:15;;;;;;;17.23;3.63;;;16.00;97.30;;;;;;5073533;28;20699;-79
2021/09/22 09:37:44;;;;;;;21.70;5.10;;;16.10;97.30;;;;;;5072783;28;20421;-79
2021/09/22 09:40:27;;;;;;;13.03;3.70;;;16.20;97.30;;;;;;5072311;28;20418;-79
2021/09/22 09:42:57;;;;;;;15.20;3.00;;;16.20;97.30;;;;;;5073898;28;20433;-78
2021/09/22 09:45:25;;;;;;;17.43;3.50;;;16.20;97.30;;;;;;5073706;28;20461;-79
2021/09/22 09:48:20;;;;;;;15.80;3.00;;;16.20;97.30;;;;;;5074661;28;20447;-79
2021/09/22 09:50:47;;;;;;;12.53;4.30;;;16.30;97.30;;;;;;5054842;28;20984;-79
2021/09/22 09:53:34;;;;;;;10.93;3.03;;;16.30;97.30;;;;;;5052828;28;20962;-79
2021/09/22 09:56:01;;;;;;;13.03;3.77;;;16.40;97.30;;;;;;5054824;28;20417;-79
2021/09/22 09:58:39;;;;;;;14.33;3.80;;;16.40;97.30;;;;;;5053187;28;20414;-78
2021/09/22 10:01:05;;;;;;;13.10;3.50;;;16.40;97.30;;;;;;5059396;28;20425;-79
2021/09/22 10:03:31;;;;;;;14.43;3.80;;;16.40;97.30;;;;;;5073643;28;20437;-79
2021/09/22 10:05:58;;;;;;;19.37;3.50;;;16.40;97.30;;;;;;5073299;28;20179;-79
2021/09/22 10:08:25;;;;;;;14.53;2.97;;;16.40;97.30;;;;;;5065886;28;20923;-79
2021/09/22 10:10:55;;;;;;;13.20;3.93;;;16.30;97.30;;;;;;5073481;28;20461;-79
2021/09/22 10:13:22;;;;;;;14.37;3.27;;;16.30;97.30;;;;;;5072175;28;20524;-79
2021/09/22 10:15:49;;;;;;;9.43;3.47;;;16.30;97.30;;;;;;5071212;28;20428;-79
2021/09/22 10:18:17;;;;;;;12.93;3.80;;;16.30;97.30;;;;;;5072029;28;20424;-79
2021/09/22 10:20:44;;;;;;;8.13;2.77;;;16.30;97.30;;;;;;5072331;28;20417;-80
2021/09/22 10:23:11;;;;;;;14.97;3.93;;;16.30;97.30;;;;;;5073311;28;20437;-79
2021/09/22 10:25:39;;;;;;;14.90;3.50;;;16.40;97.30;;;;;;5073223;28;20479;-80
2021/09/22 10:28:07;;;;;;;13.63;3.30;;;16.40;97.30;;;;;;5071921;28;20412;-79
2021/09/22 10:30:42;;;;;;;21.53;3.40;;;16.50;97.30;;;;;;5072769;28;20450;-79
2021/09/22 10:33:32;;;;;;;12.90;3.00;;;16.60;97.30;;;;;;5071905;28;20447;-79
2021/09/22 10:36:01;;;;;;;8.53;2.87;;;16.60;97.30;;;;;;5071808;28;20947;-79
2021/09/22 10:38:27;;;;;;;9.43;3.30;;;16.60;97.30;;;;;;5071409;28;20801;-79
2021/09/22 10:40:54;;;;;;;21.87;2.73;;;16.70;97.30;;;;;;5071618;28;20429;-79
2021/09/22 10:43:25;;;;;;;17.40;3.60;;;16.80;97.30;;;;;;5071162;28;20230;-79
2021/09/22 10:46:19;;;;;;;20.23;3.67;;;16.70;97.10;;;;;;5072434;28;20429;-79
2021/09/22 10:48:50;;;;;;;12.97;3.53;;;16.70;97.30;;;;;;5071373;28;20865;-79
2021/09/22 10:51:29;;;;;;;14.63;3.50;;;16.80;97.30;;;;;;5070643;28;20478;-79
2021/09/22 10:54:10;;;;;;;26.47;3.67;;;16.90;96.90;;;;;;5072210;28;20429;-79
2021/09/22 10:57:12;;;;;;;15.73;2.67;;;16.90;97.10;;;;;;5071969;28;20509;-80
2021/09/22 10:59:39;;;;;;;11.77;3.10;;;16.90;97.10;;;;;;5068195;28;20445;-79
2021/09/22 11:02:07;;;;;;;16.17;3.40;;;16.80;97.00;;;;;;5071237;28;20436;-79
2021/09/22 11:04:53;;;;;;;18.90;3.43;;;16.80;97.10;;;;;;5070445;28;20524;-79
2021/09/22 11:07:19;;;;;;;16.40;3.67;;;17.00;96.70;;;;;;5072376;28;20435;-79
2021/09/22 11:09:45;;;;;;;23.97;4.47;;;17.00;97.00;;;;;;5072339;28;20452;-79
2021/09/22 11:12:13;;;;;;;12.20;3.40;;;16.90;96.80;;;;;;5071158;28;20179;-80
2021/09/22 11:14:47;;;;;;;23.17;4.20;;;16.90;97.00;;;;;;5073015;28;20406;-80
2021/09/22 11:17:24;;;;;;;19.77;3.40;;;16.80;97.30;;;;;;5072144;28;20956;-79
2021/09/22 11:19:56;;;;;;;13.27;3.10;;;16.90;97.30;;;;;;5072599;28;20404;-79
2021/09/22 11:22:31;;;;;;;14.00;3.00;;;17.00;96.90;;;;;;5071820;28;20848;-79
2021/09/22 11:24:58;;;;;;;13.00;2.63;;;17.30;95.60;;;;;;5071395;28;20420;-79
2021/09/22 11:27:25;;;;;;;12.50;2.73;;;17.50;95.20;;;;;;5071381;28;20436;-79
2021/09/22 11:30:01;;;;;;;17.03;3.70;;;17.50;94.00;;;;;;5071641;28;20807;-79
2021/09/22 11:32:35;;;;;;;11.33;3.20;;;17.50;94.40;;;;;;5072133;28;20424;-81
2021/09/22 11:35:05;;;;;;;13.37;3.10;;;17.40;94.10;;;;;;5070481;28;20416;-79
2021/09/22 11:37:52;;;;;;;13.90;2.80;;;17.40;94.50;;;;;;5070897;28;20425;-79
2021/09/22 11:40:22;;;;;;;15.97;3.77;;;17.50;94.20;;;;;;5070651;28;20421;-80
2021/09/22 11:43:04;;;;;;;11.10;3.10;;;17.50;93.60;;;;;;5070288;28;20981;-80
2021/09/22 11:45:51;;;;;;;12.27;3.93;;;17.50;94.70;;;;;;5070076;28;20468;-79
2021/09/22 11:48:29;;;;;;;8.50;3.40;;;17.40;94.10;;;;;;5066052;28;20422;-78
2021/09/22 11:50:56;;;;;;;8.63;3.37;;;17.50;94.30;;;;;;5051135;28;20488;-79
2021/09/22 11:53:25;;;;;;;7.03;2.70;;;17.60;93.40;;;;;;5051679;28;21144;-79
2021/09/22 11:55:51;;;;;;;9.37;2.57;;;17.80;92.60;;;;;;5051170;28;20936;-79
2021/09/22 11:58:22;;;;;;;9.80;2.93;;;18.10;92.50;;;;;;5050290;28;20507;-79
2021/09/22 12:00:59;;;;;;;14.47;3.10;;;18.10;91.50;;;;;;5051570;28;20418;-79
2021/09/22 12:03:27;;;;;;;13.20;3.43;;;18.20;91.10;;;;;;5053728;28;20530;-79
2021/09/22 12:06:08;;;;;;;12.83;2.87;;;18.10;91.60;;;;;;5052095;28;20422;-77
2021/09/22 12:08:35;;;;;;;14.77;3.80;;;18.00;92.00;;;;;;5073088;28;20429;-79
2021/09/22 12:11:02;;;;;;;14.63;3.40;;;18.10;93.80;;;;;;5071725;28;20552;-79
2021/09/22 12:13:27;;;;;;;8.47;3.60;;;18.30;93.20;;;;;;5071616;28;20429;-79
2021/09/22 12:15:57;;;;;;;11.37;2.67;;;18.50;93.10;;;;;;5072647;28;20432;-79
2021/09/22 12:18:23;;;;;;;9.73;2.90;;;18.50;91.90;;;;;;5071191;28;20185;-79
2021/09/22 12:20:49;;;;;;;14.97;3.10;;;18.40;91.90;;;;;;5072039;28;20948;-79
2021/09/22 12:23:27;;;;;;;13.37;3.67;;;18.30;92.40;;;;;;5072267;28;20519;-80
2021/09/22 12:26:07;;;;;;;27.47;4.60;;;18.10;92.80;;;;;;5071502;28;20349;-79
2021/09/22 12:28:32;;;;;;;14.00;3.17;;;18.00;93.30;;;;;;5071895;28;20942;-80
2021/09/22 12:30:58;;;;;;;16.70;3.57;;;17.90;93.70;;;;;;5072212;28;20461;-79
2021/09/22 12:33:25;;;;;;;13.37;3.40;;;17.90;94.50;;;;;;5072028;28;20206;-79
2021/09/22 12:35:50;;;;;;;24.17;3.50;;;18.00;94.40;;;;;;5072107;28;20176;-79
2021/09/22 12:38:18;;;;;;;19.10;4.03;;;18.30;94.00;;;;;;5070912;28;20420;-80
2021/09/22 12:40:47;;;;;;;12.47;4.00;;;18.60;92.80;;;;;;5071877;28;20641;-79